createdAt,value
2023-03-05T00:00:27.064Z,59.39
2023-03-05T00:02:53.458Z,58.68
2023-03-05T00:05:19.837Z,59.09
2023-03-05T00:07:46.720Z,59.43
2023-03-05T00:10:13.089Z,60.04
2023-03-05T00:12:39.495Z,60.48
2023-03-05T00:15:06.628Z,60.80
2023-03-05T00:17:32.969Z,60.86
2023-03-05T00:20:01.924Z,61.13
2023-03-05T00:22:28.734Z,59.78
2023-03-05T00:24:55.081Z,59.66
2023-03-05T00:27:21.512Z,59.69
2023-03-05T00:29:47.955Z,59.08
2023-03-05T00:32:14.382Z,58.88
2023-03-05T00:34:40.729Z,58.64
2023-03-05T00:37:10.445Z,58.83
2023-03-05T00:39:36.890Z,59.30
2023-03-05T00:42:03.565Z,59.82
2023-03-05T00:44:29.906Z,59.87
2023-03-05T00:46:56.301Z,60.10
2023-03-05T00:49:22.691Z,60.81
2023-03-05T00:51:49.053Z,61.06
2023-03-05T00:54:15.377Z,61.66
2023-03-05T00:56:41.753Z,63.86
2023-03-05T00:59:08.182Z,63.78
2023-03-05T01:01:34.539Z,63.14
2023-03-05T01:04:01.308Z,63.33
2023-03-05T01:06:27.823Z,64.45
2023-03-05T01:08:54.248Z,64.60
2023-03-05T01:11:20.602Z,64.56
2023-03-05T01:13:47.048Z,64.46
2023-03-05T01:16:13.522Z,64.99
2023-03-05T01:18:40.491Z,65.54
2023-03-05T01:21:07.261Z,65.27
2023-03-05T01:23:35.636Z,65.39
2023-03-05T01:26:02.018Z,65.25
2023-03-05T01:28:28.512Z,66.09
2023-03-05T01:30:55.044Z,66.49
2023-03-05T01:33:21.599Z,65.73
2023-03-05T01:35:49.081Z,65.91
2023-03-05T01:38:16.504Z,66.36
2023-03-05T01:40:43.893Z,65.83
2023-03-05T01:43:13.205Z,66.20
2023-03-05T01:46:17.992Z,66.35
2023-03-05T01:48:49.457Z,66.21
2023-03-05T01:51:19.235Z,66.55
2023-03-05T01:53:46.542Z,66.36
2023-03-05T01:56:12.987Z,66.67
2023-03-05T01:58:39.787Z,66.83
2023-03-05T02:01:08.756Z,66.74
2023-03-05T02:03:36.574Z,67.17
2023-03-05T02:06:03.356Z,67.47
2023-03-05T02:08:29.769Z,67.22
2023-03-05T02:10:57.196Z,66.93
2023-03-05T02:13:27.347Z,67.05
2023-03-05T02:15:58.373Z,67.40
2023-03-05T02:18:25.259Z,67.42
2023-03-05T02:20:57.672Z,67.67
2023-03-05T02:23:29.013Z,67.89
2023-03-05T02:25:56.320Z,68.05
2023-03-05T02:28:25.661Z,68.49
2023-03-05T02:30:52.417Z,67.95
2023-03-05T02:33:20.369Z,68.15
2023-03-05T02:35:46.804Z,68.08
2023-03-05T02:38:14.871Z,68.06
2023-03-05T02:40:41.403Z,68.38
2023-03-05T02:43:08.054Z,68.18
2023-03-05T02:45:35.248Z,68.38
2023-03-05T02:48:02.079Z,68.18
2023-03-05T02:50:29.477Z,68.17
2023-03-05T02:52:55.842Z,68.73
2023-03-05T02:55:22.476Z,68.78
2023-03-05T02:57:48.826Z,69.08
2023-03-05T03:00:15.949Z,68.78
2023-03-05T03:02:42.465Z,68.68
2023-03-05T03:05:09.530Z,69.26
2023-03-05T03:07:36.550Z,69.68
2023-03-05T03:10:04.701Z,69.33
2023-03-05T03:12:31.144Z,68.79
2023-03-05T03:14:57.470Z,69.08
2023-03-05T03:17:24.343Z,69.07
2023-03-05T03:19:50.661Z,68.66
2023-03-05T03:22:17.011Z,69.14
2023-03-05T03:24:43.838Z,69.16
2023-03-05T03:27:10.666Z,68.96
2023-03-05T03:29:37.027Z,68.98
2023-03-05T03:32:04.624Z,68.65
2023-03-05T03:34:31.111Z,68.91
2023-03-05T03:36:57.482Z,68.94
2023-03-05T03:39:25.383Z,68.94
2023-03-05T03:41:53.115Z,68.98
2023-03-05T03:44:21.773Z,69.70
2023-03-05T03:46:59.622Z,69.52
2023-03-05T03:49:37.293Z,69.44
2023-03-05T03:52:03.773Z,69.84
2023-03-05T03:54:30.232Z,69.17
2023-03-05T03:56:56.709Z,69.50
2023-03-05T03:59:23.390Z,69.22
2023-03-05T04:01:49.897Z,69.44
2023-03-05T04:04:16.374Z,69.35
2023-03-05T04:06:43.228Z,69.16
2023-03-05T04:09:09.943Z,68.80
2023-03-05T04:11:37.341Z,68.94
2023-03-05T04:14:04.337Z,68.63
2023-03-05T04:16:31.085Z,68.75
2023-03-05T04:18:57.485Z,68.75
2023-03-05T04:21:24.075Z,69.00
2023-03-05T04:23:50.404Z,69.13
2023-03-05T04:26:16.775Z,69.02
2023-03-05T04:28:43.111Z,69.52
2023-03-05T04:31:09.638Z,69.07
2023-03-05T04:33:36.129Z,69.47
2023-03-05T04:36:03.529Z,69.60
2023-03-05T04:38:29.883Z,69.23
2023-03-05T04:40:56.260Z,69.60
2023-03-05T04:43:22.697Z,69.28
2023-03-05T04:45:49.136Z,70.05
2023-03-05T04:48:16.901Z,70.43
2023-03-05T04:50:43.282Z,70.96
2023-03-05T04:53:09.613Z,71.02
2023-03-05T04:55:35.995Z,70.82
2023-03-05T04:58:02.443Z,71.08
2023-03-05T05:00:28.790Z,71.96
2023-03-05T05:02:55.217Z,71.08
2023-03-05T05:05:24.604Z,70.46
2023-03-05T05:07:55.312Z,71.55
2023-03-05T05:10:22.503Z,71.39
2023-03-05T05:12:48.967Z,71.49
2023-03-05T05:15:15.375Z,71.12
2023-03-05T05:17:41.737Z,71.15
2023-03-05T05:20:10.827Z,71.01
2023-03-05T05:22:37.793Z,71.23
2023-03-05T05:25:05.106Z,71.30
2023-03-05T05:27:31.495Z,70.73
2023-03-05T05:29:58.521Z,70.42
2023-03-05T05:32:25.505Z,70.68
2023-03-05T05:34:56.496Z,69.80
2023-03-05T05:37:23.255Z,70.32
2023-03-05T05:39:50.352Z,70.10
2023-03-05T05:42:22.233Z,70.38
2023-03-05T05:44:48.669Z,70.31
2023-03-05T05:47:16.517Z,70.59
2023-03-05T05:49:42.905Z,70.45
2023-03-05T05:52:09.348Z,70.46
2023-03-05T05:54:35.870Z,70.93
2023-03-05T05:57:02.311Z,70.51
2023-03-05T05:59:28.718Z,70.61
2023-03-05T06:01:55.227Z,70.89
2023-03-05T06:04:21.825Z,70.35
2023-03-05T06:06:48.379Z,70.95
2023-03-05T06:09:15.077Z,71.10
2023-03-05T06:11:41.610Z,71.34
2023-03-05T06:14:08.704Z,71.44
2023-03-05T06:16:35.354Z,71.42
2023-03-05T06:19:04.458Z,71.03
2023-03-05T06:21:33.259Z,71.22
2023-03-05T06:23:59.954Z,71.71
2023-03-05T06:26:26.369Z,71.87
2023-03-05T06:28:53.707Z,72.74
2023-03-05T06:31:22.846Z,72.67
2023-03-05T06:33:49.929Z,72.61
2023-03-05T06:36:18.633Z,72.64
2023-03-05T06:38:45.462Z,73.19
2023-03-05T06:41:15.425Z,73.12
2023-03-05T06:43:43.909Z,72.82
2023-03-05T06:46:16.332Z,73.17
2023-03-05T06:48:43.231Z,73.33
2023-03-05T06:51:18.593Z,74.00
2023-03-05T06:53:46.768Z,73.31
2023-03-05T06:56:16.597Z,73.15
2023-03-05T06:58:45.616Z,73.30
2023-03-05T07:01:12.974Z,72.98
2023-03-05T07:03:39.512Z,73.24
2023-03-05T07:06:07.848Z,72.91
2023-03-05T07:08:34.279Z,73.31
2023-03-05T07:11:01.060Z,74.04
2023-03-05T07:13:27.903Z,73.13
2023-03-05T07:15:54.718Z,73.21
2023-03-05T07:18:21.212Z,73.25
2023-03-05T07:20:47.677Z,73.49
2023-03-05T07:23:14.052Z,73.72
2023-03-05T07:25:40.517Z,74.18
2023-03-05T07:28:07.045Z,73.84
2023-03-05T07:30:34.062Z,73.15
2023-03-05T07:33:00.483Z,73.23
2023-03-05T07:35:26.924Z,73.67
2023-03-05T07:37:54.909Z,74.26
2023-03-05T07:40:22.238Z,73.23
2023-03-05T07:42:48.642Z,72.84
2023-03-05T07:45:14.994Z,73.61
2023-03-05T07:47:41.364Z,73.17
2023-03-05T07:50:08.417Z,72.80
2023-03-05T07:52:34.775Z,73.90
2023-03-05T07:55:01.166Z,73.46
2023-03-05T07:57:27.567Z,73.86
2023-03-05T07:59:53.950Z,72.90
2023-03-05T08:02:21.552Z,73.39
2023-03-05T08:04:47.958Z,72.38
2023-03-05T08:07:15.954Z,73.10
2023-03-05T08:09:42.824Z,73.61
2023-03-05T08:12:10.310Z,73.37
2023-03-05T08:14:37.840Z,73.38
2023-03-05T08:17:05.569Z,74.38
2023-03-05T08:19:33.163Z,74.20
2023-03-05T08:21:59.930Z,73.40
2023-03-05T08:24:29.541Z,72.92
2023-03-05T08:26:57.463Z,72.32
2023-03-05T08:29:25.116Z,73.04
2023-03-05T08:31:53.573Z,74.20
2023-03-05T08:34:21.153Z,74.70
2023-03-05T08:36:48.847Z,73.79
2023-03-05T08:39:15.342Z,73.77
2023-03-05T08:41:41.723Z,74.18
2023-03-05T08:44:08.248Z,74.78
2023-03-05T08:46:34.919Z,74.50
2023-03-05T08:49:01.330Z,74.27
2023-03-05T08:51:27.880Z,75.68
2023-03-05T08:53:57.779Z,75.53
2023-03-05T08:56:26.296Z,76.86
2023-03-05T08:58:53.020Z,75.77
2023-03-05T09:01:19.929Z,76.36
2023-03-05T09:03:47.111Z,76.26
2023-03-05T09:06:13.486Z,77.14
2023-03-05T09:08:42.215Z,77.12
2023-03-05T09:11:11.508Z,78.06
2023-03-05T09:13:38.061Z,78.11
2023-03-05T09:16:07.746Z,77.41
2023-03-05T09:18:36.551Z,77.89
2023-03-05T09:21:12.205Z,77.38
2023-03-05T09:23:39.112Z,77.06
2023-03-05T09:26:06.886Z,76.96
2023-03-05T09:28:33.682Z,78.07
2023-03-05T09:31:08.168Z,77.82
2023-03-05T09:33:36.542Z,77.58
2023-03-05T09:36:04.253Z,77.18
2023-03-05T09:38:31.299Z,78.61
2023-03-05T09:41:07.704Z,77.63
2023-03-05T09:43:48.907Z,78.23
2023-03-05T09:46:51.012Z,76.81
2023-03-05T09:49:56.102Z,76.01
2023-03-05T09:52:39.134Z,77.34
2023-03-05T09:55:14.565Z,77.11
2023-03-05T09:57:51.525Z,76.68
2023-03-05T10:00:33.047Z,76.18
2023-03-05T10:03:04.056Z,75.27
2023-03-05T10:05:49.062Z,76.04
2023-03-05T10:08:24.524Z,76.35
2023-03-05T10:10:58.221Z,76.52
2023-03-05T10:13:30.004Z,77.33
2023-03-05T10:16:03.198Z,77.35
2023-03-05T10:18:55.480Z,77.01
2023-03-05T10:21:39.197Z,77.09
2023-03-05T10:24:38.645Z,76.36
2023-03-05T10:27:15.224Z,76.40
2023-03-05T10:30:21.038Z,75.87
2023-03-05T10:33:29.199Z,74.75
2023-03-05T10:36:32.529Z,73.31
2023-03-05T10:39:31.328Z,73.16
2023-03-05T10:42:25.455Z,70.75
2023-03-05T10:44:57.974Z,70.46
2023-03-05T10:47:30.083Z,69.25
2023-03-05T10:49:58.656Z,69.48
2023-03-05T10:52:40.551Z,69.01
2023-03-05T10:55:16.345Z,68.31
2023-03-05T10:57:42.753Z,68.30
2023-03-05T11:00:20.156Z,69.16
2023-03-05T11:03:12.897Z,69.07
2023-03-05T11:05:44.013Z,68.96
2023-03-05T11:08:19.525Z,68.55
2023-03-05T11:10:46.027Z,68.52
2023-03-05T11:13:26.909Z,68.93
2023-03-05T11:16:01.974Z,68.28
2023-03-05T11:18:34.123Z,68.00
2023-03-05T11:21:12.460Z,67.92
2023-03-05T11:23:40.241Z,68.21
2023-03-05T11:26:12.623Z,69.23
2023-03-05T11:28:55.074Z,69.90
2023-03-05T11:31:24.768Z,70.38
2023-03-05T11:34:00.892Z,69.99
2023-03-05T11:36:35.963Z,69.67
2023-03-05T11:39:14.762Z,67.97
2023-03-05T11:41:50.455Z,66.21
2023-03-05T11:44:28.613Z,65.78
2023-03-05T11:47:04.953Z,65.11
2023-03-05T11:49:34.790Z,65.14
2023-03-05T11:52:12.731Z,65.11
2023-03-05T11:55:04.351Z,65.23
2023-03-05T11:57:44.071Z,66.18
2023-03-05T12:00:17.909Z,65.29
2023-03-05T12:02:49.105Z,65.88
2023-03-05T12:05:16.102Z,65.70
2023-03-05T12:07:48.430Z,68.62
2023-03-05T12:10:19.914Z,70.76
2023-03-05T12:13:05.185Z,71.02
2023-03-05T12:15:39.959Z,70.32
2023-03-05T12:18:26.874Z,71.19
2023-03-05T12:21:04.860Z,69.76
2023-03-05T12:23:45.690Z,67.95
2023-03-05T12:26:40.883Z,68.78
2023-03-05T12:29:27.953Z,67.93
2023-03-05T12:31:54.322Z,68.32
2023-03-05T12:34:40.482Z,73.28
2023-03-05T12:37:12.527Z,72.58
2023-03-05T12:39:45.260Z,74.36
2023-03-05T12:42:38.053Z,74.62
2023-03-05T12:45:26.972Z,72.57
2023-03-05T12:47:58.292Z,71.63
2023-03-05T12:50:28.061Z,72.03
2023-03-05T12:53:06.932Z,71.80
2023-03-05T12:55:50.051Z,71.33
2023-03-05T12:58:24.432Z,69.15
2023-03-05T13:01:04.971Z,68.64
2023-03-05T13:03:35.369Z,68.05
2023-03-05T13:06:05.946Z,67.78
2023-03-05T13:08:36.070Z,68.82
2023-03-05T13:11:18.643Z,68.06
2023-03-05T13:13:48.689Z,66.98
2023-03-05T13:16:22.670Z,67.19
2023-03-05T13:18:50.375Z,66.62
2023-03-05T13:21:19.269Z,67.63
2023-03-05T13:24:00.240Z,66.06
2023-03-05T13:26:29.107Z,65.89
2023-03-05T13:29:16.821Z,65.73
2023-03-05T13:31:48.179Z,66.15
2023-03-05T13:34:18.606Z,65.89
2023-03-05T13:37:05.366Z,66.25
2023-03-05T13:40:03.321Z,63.75
2023-03-05T13:42:34.772Z,62.85
2023-03-05T13:45:06.139Z,62.63
2023-03-05T13:47:35.519Z,62.15
2023-03-05T13:50:06.827Z,61.65
2023-03-05T13:52:36.600Z,62.35
2023-03-05T13:55:11.458Z,61.73
2023-03-05T13:57:46.185Z,62.30
2023-03-05T14:00:34.072Z,62.80
2023-03-05T14:03:09.454Z,63.18
2023-03-05T14:05:36.410Z,64.47
2023-03-05T14:08:03.555Z,63.04
2023-03-05T14:10:36.103Z,63.63
2023-03-05T14:13:23.827Z,63.92
2023-03-05T14:16:07.723Z,63.93
2023-03-05T14:18:35.629Z,63.13
2023-03-05T14:21:05.618Z,64.50
2023-03-05T14:23:45.283Z,65.18
2023-03-05T14:26:29.494Z,62.62
2023-03-05T14:29:00.302Z,64.67
2023-03-05T14:31:28.207Z,62.90
2023-03-05T14:34:01.217Z,62.45
2023-03-05T14:36:29.534Z,61.80
2023-03-05T14:38:56.853Z,62.41
2023-03-05T14:41:40.970Z,62.83
2023-03-05T14:44:17.850Z,62.81
2023-03-05T14:46:49.500Z,62.86
2023-03-05T14:49:16.823Z,62.79
2023-03-05T14:51:45.465Z,62.79
2023-03-05T14:54:23.885Z,62.27
2023-03-05T14:56:50.787Z,63.15
2023-03-05T14:59:18.304Z,63.16
2023-03-05T15:01:45.005Z,62.96
2023-03-05T15:04:11.429Z,63.18
2023-03-05T15:06:40.940Z,62.48
2023-03-05T15:09:07.849Z,62.10
2023-03-05T15:11:34.769Z,63.20
2023-03-05T15:14:01.264Z,63.59
2023-03-05T15:16:27.704Z,64.10
2023-03-05T15:18:54.094Z,63.80
2023-03-05T15:21:20.444Z,63.24
2023-03-05T15:23:47.008Z,63.41
2023-03-05T15:26:15.189Z,63.10
2023-03-05T15:28:43.432Z,63.51
2023-03-05T15:31:10.418Z,63.74
2023-03-05T15:33:57.170Z,64.42
2023-03-05T15:36:23.639Z,64.78
2023-03-05T15:38:52.588Z,63.94
2023-03-05T15:41:19.059Z,64.86
2023-03-05T15:43:45.504Z,63.94
2023-03-05T15:46:12.027Z,63.67
2023-03-05T15:48:38.499Z,63.63
2023-03-05T15:51:08.155Z,64.33
2023-03-05T15:53:34.626Z,64.26
2023-03-05T15:56:01.086Z,64.69
2023-03-05T15:58:27.456Z,64.25
2023-03-05T16:00:54.360Z,64.70
2023-03-05T16:03:20.867Z,65.18
2023-03-05T16:05:47.357Z,65.04
2023-03-05T16:08:13.789Z,65.31
2023-03-05T16:10:40.895Z,65.42
2023-03-05T16:13:13.307Z,66.24
2023-03-05T16:15:41.359Z,66.10
2023-03-05T16:18:11.658Z,66.23
2023-03-05T16:20:38.151Z,65.37
2023-03-05T16:23:05.901Z,65.78
2023-03-05T16:25:32.781Z,66.50
2023-03-05T16:27:59.351Z,67.04
2023-03-05T16:30:25.796Z,67.01
2023-03-05T16:32:53.735Z,67.17
2023-03-05T16:35:20.556Z,68.43
2023-03-05T16:37:47.615Z,68.48
2023-03-05T16:40:14.318Z,67.55
2023-03-05T16:42:40.749Z,68.55
2023-03-05T16:45:11.437Z,68.90
2023-03-05T16:47:38.606Z,67.83
2023-03-05T16:50:06.278Z,68.90
2023-03-05T16:52:32.932Z,68.05
2023-03-05T16:54:59.590Z,67.96
2023-03-05T16:57:26.216Z,68.37
2023-03-05T16:59:53.915Z,68.77
2023-03-05T17:02:20.329Z,69.11
2023-03-05T17:04:46.718Z,68.35
2023-03-05T17:07:13.222Z,68.46
2023-03-05T17:09:39.777Z,69.11
2023-03-05T17:12:06.521Z,69.41
2023-03-05T17:14:32.971Z,69.41
2023-03-05T17:17:01.139Z,69.28
2023-03-05T17:19:27.665Z,69.06
2023-03-05T17:21:54.294Z,69.05
2023-03-05T17:24:22.264Z,68.96
2023-03-05T17:26:49.672Z,69.23
2023-03-05T17:29:16.156Z,68.93
2023-03-05T17:31:43.145Z,69.40
2023-03-05T17:34:10.080Z,70.06
2023-03-05T17:36:36.739Z,69.46
2023-03-05T17:39:04.458Z,69.54
2023-03-05T17:41:30.827Z,69.72
2023-03-05T17:43:57.438Z,69.59
2023-03-05T17:46:23.868Z,69.54
2023-03-05T17:48:50.295Z,69.75
2023-03-05T17:51:16.747Z,70.13
2023-03-05T17:53:43.567Z,70.34
2023-03-05T17:56:11.820Z,70.68
2023-03-05T17:58:38.947Z,70.74
2023-03-05T18:01:07.112Z,71.38
2023-03-05T18:03:34.255Z,71.07
2023-03-05T18:06:00.598Z,70.45
2023-03-05T18:08:26.986Z,71.44
2023-03-05T18:10:54.465Z,71.41
2023-03-05T18:13:20.997Z,71.02
2023-03-05T18:15:47.764Z,71.73
2023-03-05T18:18:15.656Z,71.75
2023-03-05T18:20:42.261Z,71.64
2023-03-05T18:23:08.723Z,71.54
2023-03-05T18:25:35.275Z,71.62
2023-03-05T18:28:06.327Z,71.80
2023-03-05T18:30:33.365Z,71.44
2023-03-05T18:33:00.499Z,71.73
2023-03-05T18:35:29.053Z,72.55
2023-03-05T18:37:56.388Z,72.22
2023-03-05T18:40:26.311Z,71.89
2023-03-05T18:42:52.984Z,72.12
2023-03-05T18:45:21.383Z,72.81
2023-03-05T18:47:52.433Z,72.50
2023-03-05T18:50:18.870Z,72.31
2023-03-05T18:52:45.570Z,72.79
2023-03-05T18:55:17.767Z,72.90
2023-03-05T18:57:44.369Z,72.71
2023-03-05T19:00:14.843Z,73.58
2023-03-05T19:02:41.430Z,73.44
2023-03-05T19:05:08.662Z,73.32
2023-03-05T19:07:35.303Z,72.53
2023-03-05T19:10:07.326Z,72.68
2023-03-05T19:12:38.701Z,72.45
2023-03-05T19:15:06.088Z,72.25
2023-03-05T19:17:32.784Z,72.46
2023-03-05T19:19:59.698Z,72.58
2023-03-05T19:22:26.961Z,72.47
2023-03-05T19:24:56.854Z,74.02
2023-03-05T19:27:23.295Z,72.75
2023-03-05T19:29:49.959Z,72.31
2023-03-05T19:32:21.868Z,72.69
2023-03-05T19:34:48.653Z,72.28
2023-03-05T19:37:15.123Z,73.27
2023-03-05T19:39:42.238Z,72.66
2023-03-05T19:42:08.858Z,72.71
2023-03-05T19:44:35.460Z,73.27
2023-03-05T19:47:04.649Z,72.69
2023-03-05T19:49:31.046Z,73.41
2023-03-05T19:52:04.878Z,73.55
2023-03-05T19:54:32.100Z,74.00
2023-03-05T19:57:01.093Z,74.08
2023-03-05T19:59:27.555Z,74.34
2023-03-05T20:01:57.427Z,73.67
2023-03-05T20:04:29.072Z,74.18
2023-03-05T20:06:55.480Z,73.88
2023-03-05T20:09:21.944Z,74.86
2023-03-05T20:11:48.473Z,74.80
2023-03-05T20:14:15.051Z,74.09
2023-03-05T20:16:43.076Z,74.68
2023-03-05T20:19:16.102Z,75.50
2023-03-05T20:21:43.368Z,75.53
2023-03-05T20:24:18.141Z,76.39
2023-03-05T20:26:46.035Z,76.71
2023-03-05T20:29:16.927Z,76.30
2023-03-05T20:31:44.120Z,76.75
2023-03-05T20:34:14.010Z,76.80
2023-03-05T20:36:40.756Z,76.47
2023-03-05T20:39:18.970Z,76.11
2023-03-05T20:41:45.626Z,76.73
2023-03-05T20:44:13.626Z,76.73
2023-03-05T20:46:49.486Z,76.79
2023-03-05T20:49:15.933Z,77.06
2023-03-05T20:51:42.299Z,76.38
2023-03-05T20:54:11.593Z,76.34
2023-03-05T20:56:38.156Z,76.35
2023-03-05T20:59:08.477Z,76.97
2023-03-05T21:01:38.665Z,77.10
2023-03-05T21:04:06.264Z,77.57
2023-03-05T21:06:36.708Z,78.45
2023-03-05T21:09:04.018Z,77.77
2023-03-05T21:11:31.804Z,77.68
2023-03-05T21:13:59.214Z,78.10
2023-03-05T21:16:28.756Z,77.78
2023-03-05T21:18:57.303Z,78.04
2023-03-05T21:21:23.785Z,78.64
2023-03-05T21:23:50.382Z,78.92
2023-03-05T21:26:17.009Z,78.28
2023-03-05T21:28:43.624Z,79.67
2023-03-05T21:31:16.449Z,81.90
2023-03-05T21:33:43.015Z,81.23
2023-03-05T21:36:09.714Z,81.18
2023-03-05T21:38:36.356Z,81.21
2023-03-05T21:41:04.108Z,80.97
2023-03-05T21:43:31.254Z,81.06
2023-03-05T21:46:00.746Z,81.39
2023-03-05T21:48:27.330Z,80.99
2023-03-05T21:50:55.086Z,81.42
2023-03-05T21:53:21.701Z,81.64
2023-03-05T21:56:03.261Z,81.47
2023-03-05T21:58:32.578Z,81.25
2023-03-05T22:01:02.590Z,81.08
2023-03-05T22:03:29.844Z,81.56
2023-03-05T22:05:56.922Z,81.44
2023-03-05T22:08:23.877Z,81.74
2023-03-05T22:10:50.359Z,82.63
2023-03-05T22:13:17.877Z,82.65
2023-03-05T22:15:53.351Z,81.73
2023-03-05T22:18:27.213Z,81.87
2023-03-05T22:20:54.542Z,82.36
2023-03-05T22:23:22.537Z,82.14
2023-03-05T22:25:57.280Z,81.98
2023-03-05T22:28:23.746Z,81.77
2023-03-05T22:30:50.164Z,81.94
2023-03-05T22:33:16.565Z,82.30
2023-03-05T22:35:43.143Z,82.69
2023-03-05T22:38:10.591Z,82.36
2023-03-05T22:40:40.192Z,82.88
2023-03-05T22:43:06.667Z,82.38
2023-03-05T22:45:33.507Z,82.19
2023-03-05T22:48:00.796Z,82.48
2023-03-05T22:50:27.469Z,82.50
2023-03-05T22:52:54.398Z,81.73
2023-03-05T22:55:21.118Z,82.05
2023-03-05T22:57:47.950Z,81.73
2023-03-05T23:00:18.380Z,82.38
2023-03-05T23:02:44.809Z,81.84
2023-03-05T23:05:11.776Z,81.54
2023-03-05T23:07:41.658Z,81.29
2023-03-05T23:10:10.280Z,81.25
2023-03-05T23:12:40.166Z,80.91
2023-03-05T23:15:12.625Z,80.81
2023-03-05T23:17:39.242Z,80.73
2023-03-05T23:20:09.329Z,80.74
2023-03-05T23:22:36.938Z,81.72
2023-03-05T23:25:03.923Z,81.22
2023-03-05T23:27:30.306Z,81.01
2023-03-05T23:30:21.044Z,81.46
2023-03-05T23:32:52.399Z,81.21
2023-03-05T23:35:23.613Z,81.39
2023-03-05T23:37:50.753Z,81.49
2023-03-05T23:40:30.551Z,80.69
2023-03-05T23:42:56.998Z,80.77
2023-03-05T23:45:24.633Z,80.51
2023-03-05T23:47:52.855Z,80.87
2023-03-05T23:50:25.747Z,80.65
2023-03-05T23:52:54.272Z,79.80
2023-03-05T23:55:24.376Z,81.18
2023-03-05T23:57:50.955Z,80.74
